Tiempo atmosférico en la estación meteorológica de Fraga, Huesca (170 m.)

Fecha
DESCASC
Temp. máxima en grados centígrados (hora)
DESCASC
Temp. mínima en grados centígrados (hora)
DESCASC
Temp. media en grados centígrados
DESCASC
Racha de viento máxima en m/sg (hora)
DESCASC
Velocidad máxima media en intervalos de 10 minutos(hora)
DESCASC
Precipitaciones diarias en mm
DESCASC
Precipitaciones de 00:00 a 06:00 en mm
DESCASC
Precipitaciones de 06:00 a 12:00 en mm
DESCASC
Precipitaciones de 12:00 a 18:00 en mm
DESCASC
Precipitaciones de 18:00 a 24:00 en mm
DESCASC
23-11-2017 15.6 (16:10) 1.1 (05:30) 8.4 3.33 (12:40) 1.67 (12:40) 0 0 0 0 0
22-11-2017 14.4 (16:10) -2.2 (08:40) 6.1 3.33 (21:10) 1.67 (11:30) 0 0 0 0 0
21-11-2017 15.5 (16:20) -1.4 (08:30) 7.1 3.61 (18:00) 3.33 (18:00) 0 0 0 0 0
20-11-2017 14.4 (16:30) -1.6 (08:20) 6.4 3.33 (15:10) 1.94 (15:10) 0 0 0 0 0
19-11-2017 16 (16:30) -0.8 (-00:0) 7.6 3.06 (15:50) 2.22 (17:30) 0 0 0 0 0
18-11-2017 16.1 (16:20) 0.4 (00:00) 8.3 3.33 (18:00) 2.78 (17:40) 0 0 0 0 0
17-11-2017 16.6 (16:20) -0.8 (-00:0) 7.9 3.33 (17:40) 2.22 (17:40) 0 0 0 0 0
16-11-2017 15.2 (16:40) -0.8 (-00:0) 7.2 3.06 (15:20) 1.39 (15:20) 0 0 0 0 0
15-11-2017 14.5 (15:40) 0.6 (00:00) 7.6 3.33 (17:50) 2.22 (17:30) 0 0 0 0 0
14-11-2017 15.6 (16:10) 4 (00:00) 9.8 7.22 (13:30) 4.72 (05:00) 0 0 0 0 0
13-11-2017 16.5 (15:10) 5.5 (00:00) 11 23.89 (03:00) 13.89 (01:40) 0 0 0 0 0
12-11-2017 19.9 (14:20) 9.6 (00:00) 14.8 17.78 (22:30) 11.39 (21:00) 0 0 0 0 0
11-11-2017 20.2 (15:40) 11 (00:00) 15.6 11.94 (17:50) 7.22 (17:00) 0 0 0 0 0
10-11-2017 16.8 (16:20) 4.6 (00:00) 10.7 9.17 (18:50) 6.39 (18:50) 0 0 0 0 0
09-11-2017 17.6 (15:00) 4.7 (00:00) 11.2 11.11 (16:20) 8.06 (16:20) 0 0 0 0 0
08-11-2017 15.2 (12:50) 1.9 (00:00) 8.5 15.56 (13:50) 8.61 (13:50) 0 0 0 0 0
07-11-2017 16.1 (16:30) 2.6 (00:00) 9.4 7.5 (12:20) 4.44 (12:30) 0 0 0 0 0
06-11-2017 16.1 (14:20) 7.3 (00:00) 11.7 13.89 (16:00) 9.72 (16:00) 0 0 0 0 0
05-11-2017 17.3 (15:10) 10.6 (00:00) 13.9 20.28 (16:20) 13.89 (16:50) 0 0 0 0 0
04-11-2017 19.8 (15:50) 12.3 (00:00) 16 8.33 (17:30) 6.39 (17:30) 3.2 0.6 0.2 0 2.4
03-11-2017 23.9 (16:00) 8.9 (00:00) 16.4 5 (21:00) 3.06 (10:50) 0 0 0 0 0
02-11-2017 21.6 (15:50) 9.3 (07:40) 15.5 4.44 (00:10) 2.78 (17:50) 0 0 0 0 0
01-11-2017 22.2 (15:50) 8.7 (00:00) 15.5 7.78 (17:50) 4.72 (23:40) 0 0 0 0 0
31-10-2017 19.5 (15:20) 7.2 (00:00) 13.3 4.17 (22:40) 2.78 (04:10) 0 0 0 0 0
30-10-2017 22.8 (16:30) 9.8 (00:00) 16.3 5.83 (19:20) 3.61 (17:30) 0 0 0 0 0
29-10-2017 21.7 (17:00) 8.4 (00:00) 15.1 7.5 (13:30) 3.89 (20:40) 0 0 0 0 0
28-10-2017 24.3 (16:50) 11.7 (00:00) 18 7.78 (21:00) 4.17 (21:00) 0 0 0 0 0
27-10-2017 26.4 (16:40) 9.9 (00:00) 18.1 9.72 (15:50) 5.56 (15:50) 0 0 0 0 0
26-10-2017 26.3 (17:00) 9.7 (00:00) 18 3.06 (17:40) 1.94 (20:30) 0 0 0 0 0

Gráficas

Temp. máximas Temp. mínimas Temp. medias Precipitaciones Rachas de viento máximas Velocidades máximas media en intervalos de 10 minutos

Datos horarios

Fecha y hora oficial Temperatura (ºC) Velocidad del viento (km/h) Dirección del viento Racha (km/h) Dirección de racha Precipitación (mm) Presión (hPa) Tendencia (hPa) Humedad (%)
2017-11-24 23:00:00 11.1 0 Calma 5 Sudoeste 0 -- -- 70
2017-11-24 22:00:00 12 0 Calma 5 Norte 0 -- -- 66
2017-11-24 21:00:00 12.9 0 Calma 6 Noroeste 0 -- -- 63
2017-11-24 20:00:00 13.3 2 Oeste 3 Oeste 0 -- -- 61
2017-11-24 19:00:00 14.4 0 Calma 4 Nordeste 0 -- -- 56
2017-11-24 18:00:00 15.3 3 Sudeste 8 Sudeste 0 -- -- 53
2017-11-24 17:00:00 16.1 0 Calma 6 Sudoeste 0 -- -- 52
2017-11-24 16:00:00 17.1 3 Noroeste 5 Noroeste 0 -- -- 49
2017-11-24 15:00:00 16.3 3 Oeste 7 Sur 0 -- -- 51
2017-11-24 14:00:00 15.7 3 Oeste 8 Oeste 0 -- -- 52
2017-11-24 13:00:00 14.9 3 Noroeste 6 Oeste 0 -- -- 54
2017-11-24 12:00:00 13.1 3 Oeste 6 Sudoeste 0 -- -- 61
2017-11-24 11:00:00 10.4 3 Oeste 7 Oeste 0 -- -- 72
2017-11-24 10:00:00 7 0 Calma 4 Norte 0 -- -- 87
2017-11-24 09:00:00 6.1 0 Calma 5 Este 0 -- -- 89
2017-11-24 08:00:00 5.8 0 Calma 9 Sudoeste 0 -- -- 88
2017-11-24 07:00:00 5.1 5 Norte 13 Oeste 0 -- -- 90
2017-11-24 06:00:00 5.3 0 Calma 4 Sur 0 -- -- 88
2017-11-24 05:00:00 5.4 0 Calma 4 Noroeste 0 -- -- 88
2017-11-24 04:00:00 5.2 2 Oeste 4 Norte 0 -- -- 89
2017-11-24 03:00:00 5.5 3 Sudoeste 6 Sur 0 -- -- 88
2017-11-24 02:00:00 6 3 Nordeste 8 Noroeste 0 -- -- 89
2017-11-24 01:00:00 5.5 3 Noroeste 4 Noroeste 0 -- -- 88
2017-11-24 00:00:00 6 0 Calma 4 Norte 0 -- -- 84
2017-11-23 23:00:00 6.9 2 Norte 6 Noroeste 0 -- -- 84
2017-11-23 22:00:00 8.1 0 Calma 5 Noroeste 0 -- -- 75
2017-11-23 21:00:00 8.7 4 Noroeste 8 Sudoeste 0 -- -- 78
2017-11-23 20:00:00 10.7 3 Sudeste -- -- 0 -- -- 69
2017-11-23 19:00:00 11.2 0 Calma 4 Nordeste 0 -- -- 66
2017-11-23 18:00:00 12.3 0 Calma 3 Nordeste 0 -- -- 63
2017-11-23 17:00:00 14.1 0 Calma 6 Oeste 0 -- -- 57
2017-11-23 16:00:00 15.4 3 Noroeste 5 Noroeste 0 -- -- 53
2017-11-23 15:00:00 13.7 0 Calma 6 Sudoeste 0 -- -- 56
2017-11-23 14:00:00 13.6 4 Oeste 9 Noroeste 0 -- -- 54
2017-11-23 13:00:00 11.8 4 Oeste 12 Noroeste 0 -- -- 59
2017-11-23 12:00:00 9.4 3 Oeste 6 Oeste 0 -- -- 66
2017-11-23 11:00:00 8 3 Oeste 12 Oeste 0 -- -- 72
2017-11-23 10:00:00 4 4 Oeste 8 Oeste 0 -- -- 88
2017-11-23 09:00:00 2 0 Calma 6 Sur 0 -- -- 92
2017-11-23 08:00:00 1.4 2 Oeste 4 Noroeste 0 -- -- 93
2017-11-23 07:00:00 1.3 0 Calma 3 Noroeste 0 -- -- 92
2017-11-23 06:00:00 1.2 0 Calma 3 Noroeste 0 -- -- 92
2017-11-23 05:00:00 1.6 0 Calma 2 Nordeste 0 -- -- 91
2017-11-23 04:00:00 1.6 3 Noroeste 9 Noroeste 0 -- -- 92
2017-11-23 03:00:00 2.1 2 Norte 5 Noroeste 0 -- -- 91
2017-11-23 02:00:00 2.5 2 Norte 5 Sudoeste 0 -- -- 90
2017-11-23 01:00:00 2.9 2 Noroeste 8 Noroeste 0 -- -- 89
2017-11-23 00:00:00 3.2 2 Oeste 7 Oeste 0 -- -- 87
2017-11-22 23:00:00 4.2 4 Oeste 9 Nordeste 0 -- -- 83
2017-11-22 22:00:00 4.9 6 Oeste 12 Oeste 0 -- -- 79
2017-11-22 21:00:00 6.5 2 Norte 8 Oeste 0 -- -- 72
2017-11-22 20:00:00 7.9 2 Nordeste 3 Oeste 0 -- -- 67
2017-11-22 19:00:00 9.5 0 Calma 4 Sudeste 0 -- -- 63
2017-11-22 18:00:00 11.1 3 Sudeste 6 Sudeste 0 -- -- 58
2017-11-22 17:00:00 13.7 3 Sudeste 7 Sudoeste 0 -- -- 50
2017-11-22 16:00:00 14.3 2 Oeste 5 Oeste 0 -- -- 51
2017-11-22 15:00:00 12.8 3 Oeste 7 Sudoeste 0 -- -- 56
2017-11-22 14:00:00 10.6 4 Oeste 8 Sudoeste 0 -- -- 62
2017-11-22 13:00:00 7.3 5 Sur 9 Sudoeste 0 -- -- 73
2017-11-22 12:00:00 4 5 Sur 9 Sudoeste 0 -- -- 85
2017-11-22 11:00:00 1.7 3 Sur 5 Sur 0 -- -- 90
2017-11-22 10:00:00 -0.6 0 Calma 3 Oeste 0 -- -- 97
2017-11-22 09:00:00 -2 0 Calma 4 Sur 0 -- -- 95
2017-11-22 08:00:00 -1.6 0 Calma 3 Nordeste 0 -- -- 93
2017-11-22 07:00:00 -1.1 0 Calma 4 Sur 0 -- -- 93
2017-11-22 06:00:00 0.1 0 Calma 4 Noroeste 0 -- -- 95
2017-11-22 05:00:00 -0.2 3 Norte 5 Norte 0 -- -- 94
2017-11-22 04:00:00 0.4 3 Noroeste 5 Noroeste 0 -- -- 94
2017-11-22 03:00:00 0.6 2 Noroeste 6 Noroeste 0 -- -- 92
2017-11-22 02:00:00 1.3 4 Noroeste 6 Noroeste 0 -- -- 92
2017-11-22 01:00:00 2 4 Oeste 6 Oeste 0 -- -- 90
2017-11-22 00:00:00 3.3 3 Noroeste 4 Oeste 0 -- -- 84
2017-11-21 23:00:00 5 2 Norte 4 Noroeste 0 -- -- 82
2017-11-21 22:00:00 5.7 4 Noroeste 6 Noroeste 0 -- -- 78
2017-11-21 21:00:00 6.8 3 Noroeste 6 Noroeste 0 -- -- 72
2017-11-21 20:00:00 8.4 0 Calma 2 Sur 0 -- -- 67
2017-11-21 19:00:00 9.7 0 Calma 13 Este 0 -- -- 61
2017-11-21 18:00:00 11.5 12 Este 13 Este 0 -- -- 56
2017-11-21 17:00:00 15 0 Calma 4 Sudeste 0 -- -- 48
2017-11-21 16:00:00 15.2 0 Calma 4 Sur 0 -- -- 48
2017-11-21 15:00:00 13.5 0 Calma 5 Oeste 0 -- -- 53
2017-11-21 14:00:00 12.1 2 Noroeste 9 Sudoeste 0 -- -- 58
2017-11-21 13:00:00 9.5 3 Sur 6 Sudoeste 0 -- -- 67
2017-11-21 12:00:00 5.8 3 Sur 6 Sur 0 -- -- 78
2017-11-21 11:00:00 2.7 2 Sudoeste 4 Sudoeste 0 -- -- 88
2017-11-21 10:00:00 0.2 2 Sudoeste 5 Sudoeste 0 -- -- 94
2017-11-21 09:00:00 -0.8 0 Calma 0 Calma 0 -- -- 93
2017-11-21 08:00:00 -1.1 0 Calma 2 Sudoeste 0 -- -- 92
2017-11-21 07:00:00 -0.4 0 Calma 2 Sudoeste 0 -- -- 92
2017-11-21 06:00:00 0.2 0 Calma 2 Noroeste 0 -- -- 92
2017-11-21 05:00:00 0.6 0 Calma 2 Sudoeste 0 -- -- 93
2017-11-21 04:00:00 0.7 2 Noroeste 4 Noroeste 0 -- -- 92
2017-11-21 03:00:00 1.1 3 Noroeste 5 Noroeste 0 -- -- 92
2017-11-21 02:00:00 1.6 0 Calma 6 Noroeste 0 -- -- 90
2017-11-21 01:00:00 2.5 0 Calma 3 Sudoeste 0 -- -- 87
2017-11-21 00:00:00 3.4 0 Calma 6 Noroeste 0 -- -- 85
2017-11-20 23:00:00 4.5 4 Noroeste 6 Noroeste 0 -- -- 80
2017-11-20 22:00:00 5.9 3 Noroeste 4 Noroeste 0 -- -- 73
2017-11-20 21:00:00 7.4 0 Calma 2 Oeste 0 -- -- 69
2017-11-20 20:00:00 8.7 0 Calma 2 Oeste 0 -- -- 65
2017-11-20 19:00:00 9.6 0 Calma 3 Sudeste 0 -- -- 61
2017-11-20 18:00:00 11.1 0 Calma 7 Nordeste 0 -- -- 59
2017-11-20 17:00:00 13.5 5 Este 10 Sudeste 0 -- -- 52
2017-11-20 16:00:00 13.8 6 Sudeste 12 Sudeste 0 -- -- 52
2017-11-20 15:00:00 14.2 5 Este 11 Sudeste 0 -- -- 52
2017-11-20 14:00:00 12.2 0 Calma 6 Oeste 0 -- -- 57
2017-11-20 13:00:00 10.7 3 Sur 7 Sudoeste 0 -- -- 61
2017-11-20 12:00:00 7.8 5 Oeste 10 Sudoeste 0 -- -- 70
2017-11-20 11:00:00 4.9 3 Sur 5 Sur 0 -- -- 78
2017-11-20 10:00:00 1.7 3 Sur 5 Sur 0 -- -- 90
2017-11-20 09:00:00 -1 0 Calma 3 Noroeste 0 -- -- 95
2017-11-20 08:00:00 -1.4 2 Noroeste 6 Noroeste 0 -- -- 94
2017-11-20 07:00:00 -0.7 2 Noroeste 5 Noroeste 0 -- -- 95
2017-11-20 06:00:00 -0.2 0 Calma 3 Sudoeste 0 -- -- 94
2017-11-20 05:00:00 0 0 Calma 3 Noroeste 0 -- -- 93
2017-11-20 04:00:00 0.5 0 Calma 2 Oeste 0 -- -- 92
2017-11-20 03:00:00 1.2 3 Noroeste 6 Oeste 0 -- -- 90
2017-11-20 02:00:00 2.5 2 Nordeste 5 Noroeste 0 -- -- 91
2017-11-20 01:00:00 3 0 Calma 4 Noroeste 0 -- -- 88
2017-11-20 00:00:00 4.2 0 Calma 2 Sudeste 0 -- -- 86
2017-11-19 23:00:00 4.4 3 Oeste 5 Oeste 0 -- -- 83
2017-11-19 22:00:00 6.8 2 Nordeste 5 Este 0 -- -- 75
2017-11-19 21:00:00 8.3 3 Sur 7 Sudeste 0 -- -- 72
2017-11-19 20:00:00 9 3 Este 6 Este 0 -- -- 69
2017-11-19 19:00:00 10.1 0 Calma 5 Nordeste 0 -- -- 64
2017-11-19 18:00:00 12.3 5 Nordeste 9 Este 0 -- -- 54
2017-11-19 17:00:00 15.2 6 Este 8 Nordeste 0 -- -- 48
2017-11-19 16:00:00 15.8 3 Sur 11 Sur 0 -- -- 45
2017-11-19 15:00:00 14.1 4 Noroeste 7 Noroeste 0 -- -- 53
2017-11-19 14:00:00 13.1 2 Norte 10 Noroeste 0 -- -- 58
2017-11-19 13:00:00 11.6 3 Sudoeste 6 Sudoeste 0 -- -- 62
2017-11-19 12:00:00 8.9 3 Oeste 5 Oeste 0 -- -- 70
2017-11-19 11:00:00 6.4 0 Calma 5 Sudoeste 0 -- -- 77
2017-11-19 10:00:00 2.9 2 Sudoeste 4 Sur 0 -- -- 89
2017-11-19 09:00:00 0 0 Calma 6 Oeste 0 -- -- 95
2017-11-19 08:00:00 0.5 3 Sudeste 5 Oeste 0 -- -- 93
2017-11-19 07:00:00 0.9 0 Calma 3 Noroeste 0 -- -- 94
2017-11-19 06:00:00 0.8 0 Calma 2 Sur 0 -- -- 91
2017-11-19 05:00:00 1.3 0 Calma 3 Sudoeste 0 -- -- 91
2017-11-19 04:00:00 1.8 0 Calma 6 Sur 0 -- -- 91
2017-11-19 03:00:00 2.7 0 Calma 3 Norte 0 -- -- 90
2017-11-19 02:00:00 2.8 0 Calma 2 Noroeste 0 -- -- 88
2017-11-19 01:00:00 3.6 2 Noroeste 6 Noroeste 0 -- -- 87
2017-11-19 00:00:00 4.5 0 Calma 3 Sudoeste 0 -- -- 80
2017-11-18 23:00:00 5.7 3 Noroeste 4 Noroeste 0 -- -- 79
2017-11-18 22:00:00 6.5 0 Calma 5 Oeste 0 -- -- 76
2017-11-18 21:00:00 9.5 0 Calma 8 Este 0 -- -- 65
2017-11-18 20:00:00 10.4 4 Sudeste 8 Sudeste 0 -- -- 62
2017-11-18 19:00:00 11.4 2 Sur 9 Este 0 -- -- 59
2017-11-18 18:00:00 12.9 10 Este 12 Este 0 -- -- 55
2017-11-18 17:00:00 15.7 2 Este 4 Este 0 -- -- 47
2017-11-18 16:00:00 15.9 0 Calma 6 Oeste 0 -- -- 47
2017-11-18 15:00:00 15.3 3 Norte 8 Oeste 0 -- -- 49
2017-11-18 14:00:00 14 3 Oeste 8 Sur 0 -- -- 53
2017-11-18 13:00:00 12.3 2 Nordeste 6 Sur 0 -- -- 59
2017-11-18 12:00:00 9.9 4 Sur 8 Sur 0 -- -- 63
2017-11-18 11:00:00 5.5 2 Oeste 4 Noroeste 0 -- -- 78
2017-11-18 10:00:00 3 0 Calma 4 Sudoeste 0 -- -- 83
2017-11-18 09:00:00 1.2 0 Calma 4 Sudoeste 0 -- -- 92
2017-11-18 08:00:00 0.4 2 Norte 5 Oeste 0 -- -- 91
2017-11-18 07:00:00 0.7 0 Calma 3 Nordeste 0 -- -- 91
2017-11-18 06:00:00 0.8 2 Nordeste 3 Nordeste 0 -- -- 89
2017-11-18 05:00:00 1.2 0 Calma 6 Sur 0 -- -- 88
2017-11-18 04:00:00 1.6 2 Noroeste 3 Noroeste 0 -- -- 88
2017-11-18 03:00:00 2 2 Noroeste 4 Noroeste 0 -- -- 85
2017-11-18 02:00:00 2.5 2 Noroeste 4 Oeste 0 -- -- 83
2017-11-18 01:00:00 4.3 0 Calma 6 Noroeste 0 -- -- 79
2017-11-18 00:00:00 4.7 3 Noroeste 7 Oeste 0 -- -- 76
2017-11-17 23:00:00 5.9 0 Calma 5 Oeste 0 -- -- 70
2017-11-17 22:00:00 7 3 Oeste 4 Noroeste 0 -- -- 65
2017-11-17 21:00:00 8.7 0 Calma 3 Nordeste 0 -- -- 60
2017-11-17 20:00:00 9.7 2 Sudoeste 4 Sur 0 -- -- 58
2017-11-17 19:00:00 10.6 0 Calma 7 Nordeste 0 -- -- 54
2017-11-17 18:00:00 12.5 6 Este 12 Este 0 -- -- 48
2017-11-17 17:00:00 14.9 6 Este 11 Este 0 -- -- 42
2017-11-17 16:00:00 16.3 0 Calma 4 Este 0 -- -- 40
2017-11-17 15:00:00 14.7 0 Calma 8 Sudoeste 0 -- -- 43
2017-11-17 14:00:00 13.4 0 Calma 5 Nordeste 0 -- -- 46
2017-11-17 13:00:00 11.3 4 Noroeste 6 Sudoeste 0 -- -- 52
2017-11-17 12:00:00 9.3 3 Nordeste 9 Este 0 -- -- 58
2017-11-17 11:00:00 5.8 2 Sudoeste 5 Sudeste 0 -- -- 70
2017-11-17 10:00:00 3 3 Sur 5 Sur 0 -- -- 79
2017-11-17 09:00:00 0.9 2 Sur 7 Noroeste 0 -- -- 90
2017-11-17 08:00:00 -0.8 2 Noroeste 5 Noroeste 0 -- -- 91
2017-11-17 07:00:00 -0.2 0 Calma 4 Noroeste 0 -- -- 90
2017-11-17 06:00:00 -0.4 3 Noroeste 5 Noroeste 0 -- -- 90
2017-11-17 05:00:00 0.1 3 Noroeste 5 Oeste 0 -- -- 88
2017-11-17 04:00:00 0.6 0 Calma 4 Noroeste 0 -- -- 86
2017-11-17 03:00:00 1.5 0 Calma 4 Noroeste 0 -- -- 83
2017-11-17 02:00:00 2.4 2 Norte 4 Noroeste 0 -- -- 81
2017-11-17 01:00:00 2.7 0 Calma 6 Sudoeste 0 -- -- 80
2017-11-17 00:00:00 3.7 0 Calma 5 Oeste 0 -- -- 76
2017-11-16 23:00:00 4.7 3 Oeste 5 Noroeste 0 -- -- 71
2017-11-16 22:00:00 5.5 3 Noroeste 4 Noroeste 0 -- -- 66
2017-11-16 21:00:00 7.5 0 Calma 4 Sur 0 -- -- 58
2017-11-16 20:00:00 8.7 0 Calma 3 Sur 0 -- -- 54
2017-11-16 19:00:00 10.2 0 Calma 3 Nordeste 0 -- -- 49
2017-11-16 18:00:00 12.1 0 Calma 5 Oeste 0 -- -- 44
2017-11-16 17:00:00 15.2 4 Oeste 8 Norte 0 -- -- 38
2017-11-16 16:00:00 14.7 3 Este 11 Noroeste 0 -- -- 39
2017-11-16 15:00:00 15 3 Oeste 9 Oeste 0 -- -- 40
2017-11-16 14:00:00 13.3 2 Noroeste 7 Oeste 0 -- -- 44
2017-11-16 13:00:00 10.7 2 Noroeste 4 Este 0 -- -- 52
2017-11-16 12:00:00 8.5 4 Sudoeste 8 Sudoeste 0 -- -- 63
2017-11-16 11:00:00 6 5 Sur 8 Sur 0 -- -- 70
2017-11-16 10:00:00 2.8 0 Calma 3 Sudoeste 0 -- -- 78
2017-11-16 09:00:00 0.3 0 Calma 2 Oeste 0 -- -- 90
2017-11-16 08:00:00 -0.5 3 Sur 4 Nordeste 0 -- -- 89
2017-11-16 07:00:00 -0.5 0 Calma 3 Noroeste 0 -- -- 89
2017-11-16 06:00:00 -0.5 0 Calma 5 Oeste 0 -- -- 89
2017-11-16 05:00:00 -0.3 2 Oeste 6 Noroeste 0 -- -- 89
2017-11-16 04:00:00 0.2 3 Noroeste 5 Noroeste 0 -- -- 86
2017-11-16 03:00:00 1 3 Noroeste 4 Noroeste 0 -- -- 84
2017-11-16 02:00:00 1.7 0 Calma 4 Oeste 0 -- -- 80
2017-11-16 01:00:00 3 3 Noroeste 5 Noroeste 0 -- -- 77
2017-11-16 00:00:00 3.8 2 Oeste 5 Oeste 0 -- -- 73
2017-11-15 23:00:00 4.9 0 Calma 4 Este 0 -- -- 67
2017-11-15 22:00:00 6.7 3 Este 5 Este 0 -- -- 62
2017-11-15 21:00:00 6.9 0 Calma 3 Este 0 -- -- 60
2017-11-15 20:00:00 8.1 3 Sudeste 6 Sudoeste 0 -- -- 55
2017-11-15 19:00:00 9.4 3 Sur 11 Nordeste 0 -- -- 53
2017-11-15 18:00:00 10.4 7 Nordeste 12 Nordeste 0 -- -- 48
2017-11-15 17:00:00 12 3 Este 11 Sudeste 0 -- -- 45
2017-11-15 16:00:00 14.2 3 Este 10 Norte 0 -- -- 40
2017-11-15 15:00:00 13.3 3 Noroeste 9 Sudoeste 0 -- -- 41
2017-11-15 14:00:00 12.1 4 Noroeste 8 Oeste 0 -- -- 45
2017-11-15 13:00:00 9.6 2 Norte 6 Oeste 0 -- -- 53
2017-11-15 12:00:00 8.1 3 Noroeste 6 Oeste 0 -- -- 57
2017-11-15 11:00:00 6.5 2 Noroeste 10 Noroeste 0 -- -- 62
2017-11-15 10:00:00 4.9 2 Sur 4 Sudeste 0 -- -- 67
2017-11-15 09:00:00 2.3 0 Calma 3 Oeste 0 -- -- 77
2017-11-15 08:00:00 0.6 0 Calma 5 Sudoeste 0 -- -- 79
2017-11-15 07:00:00 1.2 3 Sur 9 Sudoeste 0 -- -- 78
2017-11-15 06:00:00 1.2 0 Calma 2 Sudoeste 0 -- -- 76
2017-11-15 05:00:00 2.5 2 Norte 7 Sudoeste 0 -- -- 71
2017-11-15 04:00:00 3.1 6 Sudoeste 11 Sudoeste 0 -- -- 70
2017-11-15 03:00:00 3.4 5 Sudoeste 10 Sudoeste 0 -- -- 68
2017-11-15 02:00:00 3.5 3 Noroeste 8 Oeste 0 -- -- 68
2017-11-15 01:00:00 4.6 3 Noroeste 6 Noroeste 0 -- -- 62
2017-11-15 00:00:00 6 0 Calma 11 Sudoeste 0 -- -- 57
2017-11-14 23:00:00 7.5 4 Sur 12 Sur 0 -- -- 53
2017-11-14 22:00:00 8.7 5 Sur 9 Sur 0 -- -- 50
2017-11-14 21:00:00 9.4 6 Sudoeste 13 Sur 0 -- -- 47
2017-11-14 20:00:00 10.5 5 Sur 15 Sudoeste 0 -- -- 44
2017-11-14 19:00:00 11.5 6 Sur 11 Sur 0 -- -- 42
2017-11-14 18:00:00 13 5 Sur 10 Sur 0 -- -- 37
2017-11-14 17:00:00 15.4 3 Oeste 16 Noroeste 0 -- -- 31
2017-11-14 16:00:00 15.4 8 Noroeste 21 Oeste 0 -- -- 32
2017-11-14 15:00:00 15.1 13 Oeste 22 Oeste 0 -- -- 32
2017-11-14 14:00:00 14.4 9 Oeste 26 Oeste 0 -- -- 33
2017-11-14 13:00:00 13.1 10 Oeste 22 Oeste 0 -- -- 35
2017-11-14 12:00:00 11.3 8 Oeste 18 Oeste 0 -- -- 42
2017-11-14 11:00:00 9.8 9 Oeste 15 Oeste 0 -- -- 46
2017-11-14 10:00:00 7.5 7 Oeste 18 Oeste 0 -- -- 56
2017-11-14 09:00:00 5.3 10 Sudoeste 19 Sudoeste 0 -- -- 61
2017-11-14 08:00:00 4.3 9 Sudoeste 19 Sudoeste 0 -- -- 64
2017-11-14 07:00:00 4.2 8 Sudoeste 15 Sudoeste 0 -- -- 66
2017-11-14 06:00:00 4.4 7 Sudoeste 22 Oeste 0 -- -- 64
2017-11-14 05:00:00 4.6 17 Oeste 25 Sudoeste 0 -- -- 63
2017-11-14 04:00:00 4.8 8 Sudoeste 23 Sudoeste 0 -- -- 61
2017-11-14 03:00:00 5.1 6 Sur 17 Sudoeste 0 -- -- 60
2017-11-14 02:00:00 5 5 Sudoeste 15 Sudoeste 0 -- -- 59
2017-11-14 01:00:00 5.2 6 Sur 22 Noroeste 0 -- -- 57
2017-11-14 00:00:00 5.5 12 Noroeste 26 Oeste 0 -- -- 55
2017-11-13 23:00:00 6.1 4 Sudoeste 29 Sudoeste 0 -- -- 54
2017-11-13 22:00:00 6.9 11 Oeste 27 Oeste 0 -- -- 52
2017-11-13 21:00:00 7.7 15 Sudoeste 32 Sudoeste 0 -- -- 48
2017-11-13 20:00:00 9 10 Sudoeste 36 Oeste 0 -- -- 42
2017-11-13 19:00:00 10.5 12 Oeste 31 Oeste 0 -- -- 36
2017-11-13 18:00:00 12 18 Oeste 34 Noroeste 0 -- -- 30
2017-11-13 17:00:00 14.5 22 Oeste 32 Noroeste 0 -- -- 24
2017-11-13 16:00:00 16.1 19 Oeste 32 Oeste 0 -- -- 21
2017-11-13 15:00:00 16.3 19 Oeste 33 Oeste 0 -- -- 20
2017-11-13 14:00:00 16.1 19 Oeste 33 Oeste 0 -- -- 23
2017-11-13 13:00:00 15.6 17 Noroeste 32 Oeste 0 -- -- 25
2017-11-13 12:00:00 14.2 21 Noroeste 33 Oeste 0 -- -- 29
2017-11-13 11:00:00 12.3 23 Noroeste 44 Noroeste 0 -- -- 36
2017-11-13 10:00:00 11 23 Noroeste 44 Noroeste 0 -- -- 44
2017-11-13 09:00:00 10.1 28 Noroeste 44 Noroeste 0 -- -- 51
2017-11-13 08:00:00 9.9 26 Noroeste 49 Noroeste 0 -- -- 54
2017-11-13 07:00:00 10.6 28 Noroeste 57 Noroeste 0 -- -- 55
2017-11-13 06:00:00 11.3 37 Noroeste 72 Noroeste 0 -- -- 54
2017-11-13 05:00:00 12.1 41 Noroeste 80 Oeste 0 -- -- 51
2017-11-13 04:00:00 12.7 43 Oeste 76 Oeste 0 -- -- 48
2017-11-13 03:00:00 13.5 45 Noroeste 86 Oeste 0 -- -- 47
2017-11-13 02:00:00 14.9 46 Noroeste 79 Noroeste 0 -- -- 52
2017-11-13 01:00:00 15.5 44 Oeste 72 Noroeste 0 -- -- 58
2017-11-13 00:00:00 15.5 39 Oeste 58 Oeste 0 -- -- 61
2017-11-12 23:00:00 15.7 35 Oeste 64 Oeste 0 -- -- 62
2017-11-12 22:00:00 15.6 32 Oeste 63 Oeste 0 -- -- 61
2017-11-12 21:00:00 15.9 41 Noroeste 63 Oeste 0 -- -- 62
2017-11-12 20:00:00 15.8 31 Noroeste 61 Noroeste 0 -- -- 61
2017-11-12 19:00:00 16.2 32 Oeste 58 Oeste 0 -- -- 57
2017-11-12 18:00:00 16.6 29 Noroeste 52 Oeste 0 -- -- 55
2017-11-12 17:00:00 17.9 31 Oeste 63 Oeste 0 -- -- 51
2017-11-12 16:00:00 19 37 Oeste 58 Oeste 0 -- -- 50
2017-11-12 15:00:00 19.8 34 Oeste 51 Oeste 0 -- -- 48
2017-11-12 14:00:00 19.6 27 Noroeste 48 Oeste 0 -- -- 47
2017-11-12 13:00:00 18.8 34 Oeste 45 Oeste 0 -- -- 50
2017-11-12 12:00:00 17.8 25 Oeste 37 Oeste 0 -- -- 53
2017-11-12 11:00:00 15.9 7 Oeste 30 Oeste 0 -- -- 59
2017-11-12 10:00:00 13.4 17 Oeste 33 Sudoeste 0 -- -- 63
2017-11-12 09:00:00 11.3 3 Oeste 17 Sur 0 -- -- 71
2017-11-12 08:00:00 9.8 11 Sudoeste 24 Sudoeste 0 -- -- 77
2017-11-12 07:00:00 9.7 2 Sudoeste 23 Oeste 0 -- -- 77
2017-11-12 06:00:00 10.2 4 Oeste 19 Sudoeste 0 -- -- 76
2017-11-12 05:00:00 10.5 12 Sudoeste 25 Sudoeste 0 -- -- 75
2017-11-12 04:00:00 10.8 15 Sudoeste 26 Sudoeste 0 -- -- 74
2017-11-12 03:00:00 11.2 14 Sudoeste 30 Oeste 0 -- -- 73
2017-11-12 02:00:00 11.5 12 Sudoeste 24 Sudoeste 0 -- -- 71
2017-11-12 01:00:00 11.8 13 Sudoeste 22 Sudoeste 0 -- -- 70
2017-11-12 00:00:00 12 15 Sudoeste 24 Sudoeste 0 -- -- 69
2017-11-11 23:00:00 12.5 11 Oeste 23 Oeste 0 -- -- 69
2017-11-11 22:00:00 12.9 13 Sudoeste 22 Sudoeste 0 -- -- 67
2017-11-11 21:00:00 13.6 8 Sudoeste 30 Oeste 0 -- -- 62
2017-11-11 20:00:00 14.7 17 Oeste 36 Oeste 0 -- -- 60
2017-11-11 19:00:00 15.6 22 Oeste 40 Oeste 0 -- -- 60
2017-11-11 18:00:00 17.1 22 Oeste 43 Oeste 0 -- -- 56
2017-11-11 17:00:00 18.7 26 Oeste 42 Oeste 0 -- -- 52
2017-11-11 16:00:00 20.1 21 Oeste 41 Oeste 0 -- -- 48
2017-11-11 15:00:00 19.7 19 Oeste 28 Oeste 0 -- -- 49
2017-11-11 14:00:00 18.8 16 Noroeste 31 Oeste 0 -- -- 52
2017-11-11 13:00:00 17.6 18 Noroeste 32 Oeste 0 -- -- 56
2017-11-11 12:00:00 15.8 13 Oeste 23 Oeste 0 -- -- 64
2017-11-11 11:00:00 13.8 10 Sudoeste 19 Sudoeste 0 -- -- 71
2017-11-11 10:00:00 12.5 8 Sudoeste 22 Sudoeste 0 -- -- 75
2017-11-11 09:00:00 11.7 13 Sudoeste 20 Sudoeste 0 -- -- 75
2017-11-11 08:00:00 11.8 10 Oeste 21 Noroeste 0 -- -- 75
2017-11-11 07:00:00 11.1 8 Sudoeste 18 Sudoeste 0 -- -- 75
2017-11-11 06:00:00 11.6 11 Oeste 20 Oeste 0 -- -- 72
2017-11-11 05:00:00 11.4 12 Sudoeste 22 Oeste 0 -- -- 72
2017-11-11 04:00:00 11.5 13 Oeste 21 Oeste 0 -- -- 71
2017-11-11 03:00:00 11.1 5 Oeste 13 Noroeste 0 -- -- 74
2017-11-11 02:00:00 12.1 4 Oeste 22 Sudoeste 0 -- -- 71
2017-11-11 01:00:00 12.6 17 Noroeste 28 Noroeste 0 -- -- 70
2017-11-11 00:00:00 12.5 17 Noroeste 24 Noroeste 0 -- -- 68
2017-11-10 23:00:00 12.5 11 Noroeste 21 Noroeste 0 -- -- 66
2017-11-10 22:00:00 12.7 7 Oeste 18 Noroeste 0 -- -- 64
2017-11-10 21:00:00 13.6 10 Noroeste 26 Oeste 0 -- -- 60
2017-11-10 20:00:00 14.4 11 Oeste 25 Oeste 0 -- -- 56
2017-11-10 19:00:00 15.4 19 Oeste 33 Oeste 0 -- -- 54
2017-11-10 18:00:00 15.4 5 Sudoeste 15 Oeste 0 -- -- 57
2017-11-10 17:00:00 16.8 4 Sur 8 Sur 0 -- -- 47
2017-11-10 16:00:00 16.7 3 Sur 5 Noroeste 0 -- -- 42
2017-11-10 15:00:00 16.2 3 Noroeste 20 Oeste 0 -- -- 41
2017-11-10 14:00:00 15.9 8 Oeste 20 Oeste 0 -- -- 42
2017-11-10 13:00:00 15 9 Oeste 21 Oeste 0 -- -- 45
2017-11-10 12:00:00 12.2 6 Oeste 11 Oeste 0 -- -- 53
2017-11-10 11:00:00 10.3 3 Sudoeste 10 Oeste 0 -- -- 57
2017-11-10 10:00:00 7.2 4 Oeste 5 Oeste 0 -- -- 72
2017-11-10 09:00:00 6 0 Calma 14 Sudoeste 0 -- -- 76
2017-11-10 08:00:00 5.1 9 Sudoeste 14 Sudoeste 0 -- -- 80
2017-11-10 07:00:00 4.9 3 Oeste 13 Sudoeste 0 -- -- 80
2017-11-10 06:00:00 5.2 7 Sudoeste 12 Sudoeste 0 -- -- 82
2017-11-10 05:00:00 5.3 6 Sur 9 Sur 0 -- -- 81
2017-11-10 04:00:00 5.6 8 Sur 11 Sudoeste 0 -- -- 81
2017-11-10 03:00:00 6.2 9 Sudoeste 17 Oeste 0 -- -- 78
2017-11-10 02:00:00 6.3 6 Sur 12 Oeste 0 -- -- 78
2017-11-10 01:00:00 6.6 5 Sudoeste 12 Sudoeste 0 -- -- 75
2017-11-10 00:00:00 7 4 Sudoeste 13 Sudoeste 0 -- -- 72
2017-11-09 23:00:00 8 8 Sudoeste 16 Sudoeste 0 -- -- 68
2017-11-09 22:00:00 8.6 9 Sur 21 Oeste 0 -- -- 67
2017-11-09 21:00:00 10.1 17 Oeste 22 Oeste 0 -- -- 58
2017-11-09 20:00:00 10.7 9 Sudoeste 24 Oeste 0 -- -- 57
2017-11-09 19:00:00 11.8 15 Oeste 32 Oeste 0 -- -- 53
2017-11-09 18:00:00 13.4 22 Oeste 38 Oeste 0 -- -- 49
2017-11-09 17:00:00 15.3 24 Oeste 40 Oeste 0 -- -- 44
2017-11-09 16:00:00 17.1 24 Oeste 37 Oeste 0 -- -- 39
2017-11-09 15:00:00 17.6 21 Oeste 33 Oeste 0 -- -- 37
2017-11-09 14:00:00 15.9 14 Oeste 31 Oeste 0 -- -- 44
2017-11-09 13:00:00 14.2 13 Oeste 22 Oeste 0 -- -- 51
2017-11-09 12:00:00 12.1 14 Noroeste 28 Noroeste 0 -- -- 57
2017-11-09 11:00:00 10.1 21 Noroeste 31 Noroeste 0 -- -- 65
2017-11-09 10:00:00 7.9 8 Noroeste 19 Oeste 0 -- -- 73
2017-11-09 09:00:00 7.1 9 Oeste 21 Oeste 0 -- -- 75
2017-11-09 08:00:00 6.6 7 Sudoeste 13 Sudoeste 0 -- -- 76
2017-11-09 07:00:00 6.4 7 Sudoeste 12 Sudoeste 0 -- -- 75
2017-11-09 06:00:00 6.1 10 Sudoeste 18 Sudoeste 0 -- -- 76
2017-11-09 05:00:00 5.8 11 Sudoeste 18 Sudoeste 0 -- -- 76
2017-11-09 04:00:00 5.3 10 Sudoeste 20 Sudoeste 0 -- -- 77
2017-11-09 03:00:00 4.9 11 Sudoeste 15 Sudoeste 0 -- -- 76
2017-11-09 02:00:00 5.1 11 Sur 16 Sudoeste 0 -- -- 74
2017-11-09 01:00:00 6.7 7 Oeste 31 Oeste 0 -- -- 66
2017-11-09 00:00:00 6.4 13 Oeste 19 Sudoeste 0 -- -- 68
2017-11-08 23:00:00 7 9 Sudoeste 24 Oeste 0 -- -- 68
2017-11-08 22:00:00 7.4 13 Oeste 24 Oeste 0 -- -- 69
2017-11-08 21:00:00 8.7 12 Oeste 27 Oeste 0 -- -- 62
2017-11-08 20:00:00 9.4 13 Oeste 27 Oeste 0 -- -- 61
2017-11-08 19:00:00 10.6 10 Oeste 32 Oeste 0 -- -- 55
2017-11-08 18:00:00 11.3 18 Oeste 45 Noroeste 0 -- -- 53
2017-11-08 17:00:00 12.5 26 Oeste 38 Noroeste 0 -- -- 50
2017-11-08 16:00:00 13.2 27 Oeste 48 Oeste 0 -- -- 49
2017-11-08 15:00:00 14.1 29 Oeste 46 Oeste 0 -- -- 46
2017-11-08 14:00:00 14 26 Noroeste 56 Oeste 0 -- -- 46
2017-11-08 13:00:00 14.9 25 Oeste 45 Oeste 0 -- -- 47
2017-11-08 12:00:00 14.1 28 Noroeste 40 Noroeste 0 -- -- 51
2017-11-08 11:00:00 10.9 12 Noroeste 25 Noroeste 0 -- -- 61
2017-11-08 10:00:00 9.9 2 Noroeste 10 Oeste 0 -- -- 63
2017-11-08 09:00:00 5.1 3 Sur 10 Sudoeste 0 -- -- 73
2017-11-08 08:00:00 2.2 6 Sur 13 Sur 0 -- -- 80
2017-11-08 07:00:00 3.2 0 Calma 4 Noroeste 0 -- -- 75
2017-11-08 06:00:00 4 2 Este 10 Sur 0 -- -- 69
2017-11-08 05:00:00 4 3 Norte 6 Noroeste 0 -- -- 67
2017-11-08 04:00:00 5.7 0 Calma 8 Oeste 0 -- -- 64
2017-11-08 03:00:00 6.6 4 Oeste 9 Sudoeste 0 -- -- 59
2017-11-08 02:00:00 7.3 2 Sudoeste 6 Sudoeste 0 -- -- 58
2017-11-08 01:00:00 7 2 Noroeste 14 Sudoeste 0 -- -- 53
2017-11-08 00:00:00 7.9 5 Sudoeste 9 Sudoeste 0 -- -- 46
2017-11-07 23:00:00 8.6 8 Sur 11 Sudoeste 0 -- -- 37
2017-11-07 22:00:00 9.5 5 Sudoeste 12 Sur 0 -- -- 34
2017-11-07 21:00:00 9.3 2 Sudoeste 16 Sudoeste 0 -- -- 39
2017-11-07 20:00:00 10 2 Sudeste 11 Sur 0 -- -- 42
2017-11-07 19:00:00 11.6 5 Sur 7 Sur 0 -- -- 38
2017-11-07 18:00:00 13.1 4 Sur 6 Sudoeste 0 -- -- 36
2017-11-07 17:00:00 15.8 5 Nordeste 14 Nordeste 0 -- -- 30
2017-11-07 16:00:00 15.8 4 Noroeste 14 Oeste 0 -- -- 29
2017-11-07 15:00:00 15 5 Oeste 22 Oeste 0 -- -- 32
2017-11-07 14:00:00 14.4 11 Oeste 24 Oeste 0 -- -- 33
2017-11-07 13:00:00 12.8 14 Oeste 27 Oeste 0 -- -- 37
2017-11-07 12:00:00 11.1 12 Oeste 24 Sudoeste 0 -- -- 40
2017-11-07 11:00:00 9.3 9 Oeste 17 Oeste 0 -- -- 47
2017-11-07 10:00:00 6.2 5 Sudoeste 13 Oeste 0 -- -- 59
2017-11-07 09:00:00 3.9 5 Oeste 11 Sudoeste 0 -- -- 67
2017-11-07 08:00:00 2.6 8 Sudoeste 14 Oeste 0 -- -- 72
2017-11-07 07:00:00 3.8 6 Sudoeste 20 Oeste 0 -- -- 67
2017-11-07 06:00:00 4.1 10 Sudoeste 21 Sudoeste 0 -- -- 67
2017-11-07 05:00:00 4.5 7 Oeste 19 Sudoeste 0 -- -- 67
2017-11-07 04:00:00 4.4 7 Sudoeste 14 Sur 0 -- -- 68
2017-11-07 03:00:00 5.8 8 Sudoeste 25 Noroeste 0 -- -- 61
2017-11-07 02:00:00 6.1 13 Noroeste 20 Oeste 0 -- -- 62
2017-11-07 01:00:00 6.6 7 Noroeste 19 Noroeste 0 -- -- 61
2017-11-07 00:00:00 7.3 15 Noroeste 31 Noroeste 0 -- -- 59
2017-11-06 23:00:00 8.2 20 Noroeste 38 Noroeste 0 -- -- 57
2017-11-06 22:00:00 8.6 24 Noroeste 41 Noroeste 0 -- -- 55
2017-11-06 21:00:00 9.4 29 Noroeste 49 Noroeste 0 -- -- 53
2017-11-06 20:00:00 10.3 24 Noroeste 45 Noroeste 0 -- -- 47
2017-11-06 19:00:00 11.3 27 Noroeste 46 Noroeste 0 -- -- 44
2017-11-06 18:00:00 12.5 27 Noroeste 49 Noroeste 0 -- -- 41
2017-11-06 17:00:00 14.5 26 Noroeste 50 Noroeste 0 -- -- 35
2017-11-06 16:00:00 15.8 35 Oeste 50 Oeste 0 -- -- 31
2017-11-06 15:00:00 16 30 Oeste 43 Oeste 0 -- -- 34
2017-11-06 14:00:00 15.7 30 Oeste 46 Oeste 0 -- -- 34
2017-11-06 13:00:00 14.5 29 Noroeste 46 Noroeste 0 -- -- 41
2017-11-06 12:00:00 13.7 25 Noroeste 43 Oeste 0 -- -- 46
2017-11-06 11:00:00 12.3 26 Noroeste 46 Oeste 0 -- -- 50
2017-11-06 10:00:00 10.9 21 Noroeste 35 Noroeste 0 -- -- 56
2017-11-06 09:00:00 9.2 22 Noroeste 35 Noroeste 0 -- -- 62
2017-11-06 08:00:00 7.9 21 Noroeste 28 Noroeste 0 -- -- 67
2017-11-06 07:00:00 8.4 14 Noroeste 27 Noroeste 0 -- -- 65
2017-11-06 06:00:00 8.7 16 Noroeste 28 Noroeste 0 -- -- 64
2017-11-06 05:00:00 8.8 15 Noroeste 30 Noroeste 0 -- -- 66
2017-11-06 04:00:00 9.3 21 Noroeste 35 Noroeste 0 -- -- 65
2017-11-06 03:00:00 9.5 19 Noroeste 38 Noroeste 0 -- -- 67
2017-11-06 02:00:00 9.6 20 Noroeste 37 Oeste 0 -- -- 68
2017-11-06 01:00:00 10.2 25 Noroeste 40 Noroeste 0 -- -- 67
2017-11-06 00:00:00 10.7 24 Noroeste 42 Oeste 0 -- -- 64
2017-11-05 23:00:00 10.7 23 Noroeste 53 Noroeste 0 -- -- 64
2017-11-05 22:00:00 11.3 35 Oeste 60 Oeste 0 -- -- 63
2017-11-05 21:00:00 11.8 41 Oeste 64 Oeste 0 -- -- 61
2017-11-05 20:00:00 12.3 40 Oeste 72 Oeste 0 -- -- 58
2017-11-05 19:00:00 12.8 37 Oeste 64 Oeste 0 -- -- 57
2017-11-05 18:00:00 13.8 32 Noroeste 68 Oeste 0 -- -- 53
2017-11-05 17:00:00 15.3 40 Oeste 73 Oeste 0 -- -- 48
2017-11-05 16:00:00 16.7 37 Noroeste 66 Noroeste 0 -- -- 44
2017-11-05 15:00:00 17.2 27 Oeste 58 Noroeste 0 -- -- 47
2017-11-05 14:00:00 16.8 37 Oeste 58 Oeste 0 -- -- 47
2017-11-05 13:00:00 16.5 30 Oeste 62 Oeste 0 -- -- 52
2017-11-05 12:00:00 15.6 40 Oeste 62 Noroeste 0 -- -- 53
2017-11-05 11:00:00 14.9 33 Oeste 51 Noroeste 0 -- -- 55
2017-11-05 10:00:00 14.2 28 Noroeste 44 Noroeste 0 -- -- 58
2017-11-05 09:00:00 13.1 17 Oeste 36 Oeste 0 -- -- 67
2017-11-05 08:00:00 12.4 23 Oeste 37 Oeste 0 -- -- 70
2017-11-05 07:00:00 12.7 12 Oeste 34 Oeste 0 -- -- 73
2017-11-05 06:00:00 13.1 18 Oeste 32 Oeste 0 -- -- 77
2017-11-05 05:00:00 12.8 19 Oeste 30 Oeste 0 -- -- 80
2017-11-05 04:00:00 12.5 15 Oeste 26 Oeste 0 -- -- 82
2017-11-05 03:00:00 12.5 11 Oeste 21 Oeste 0 -- -- 81
2017-11-05 02:00:00 12.6 5 Oeste 24 Oeste 0 -- -- 86
2017-11-05 01:00:00 13.2 13 Oeste 26 Oeste 0 -- -- 88
2017-11-05 00:00:00 13.4 2 Sudoeste 14 Sudoeste 0 -- -- 88
2017-11-04 23:00:00 13.6 6 Oeste 22 Sudoeste 0.2 -- -- 84
2017-11-04 22:00:00 14 7 Sudoeste 14 Oeste 1.4 -- -- 87
2017-11-04 21:00:00 13.8 6 Sudoeste 12 Sudoeste 0.2 -- -- 88
2017-11-04 20:00:00 14.3 6 Sur 28 Sudoeste 0.6 -- -- 85
2017-11-04 19:00:00 16.1 13 Sur 30 Este 0 -- -- 76
2017-11-04 18:00:00 16.5 20 Nordeste 30 Nordeste 0 -- -- 77
2017-11-04 17:00:00 19.1 7 Norte 20 Noroeste 0 -- -- 68
2017-11-04 16:00:00 19.6 10 Noroeste 15 Noroeste 0 -- -- 68
2017-11-04 15:00:00 19.3 8 Noroeste 14 Noroeste 0 -- -- 73
2017-11-04 14:00:00 18.8 5 Noroeste 14 Oeste 0 -- -- 77
2017-11-04 13:00:00 17.9 6 Oeste 13 Noroeste 0 -- -- 82
2017-11-04 12:00:00 16.2 7 Noroeste 14 Noroeste 0 -- -- 88
2017-11-04 11:00:00 15 9 Noroeste 15 Noroeste 0 -- -- 92
2017-11-04 10:00:00 13.7 5 Noroeste 9 Oeste 0 -- -- 95
2017-11-04 09:00:00 13.2 3 Sur 22 Nordeste 0 -- -- 93
2017-11-04 08:00:00 13 2 Este 14 Nordeste 0.2 -- -- 94
2017-11-04 07:00:00 12.5 4 Sudoeste 21 Este 0 -- -- 93
2017-11-04 06:00:00 12.4 6 Nordeste 10 Este 0.6 -- -- 93
2017-11-04 05:00:00 12.5 0 Calma 4 Norte 0 -- -- 91
2017-11-04 04:00:00 12.9 3 Noroeste 8 Oeste 0 -- -- 92
2017-11-04 03:00:00 13.4 4 Noroeste 8 Nordeste 0 -- -- 90
2017-11-04 02:00:00 13.5 2 Sudeste 6 Sudoeste 0 -- -- 90
2017-11-04 01:00:00 14.3 2 Sudeste 15 Nordeste 0 -- -- 87
2017-11-04 00:00:00 15.5 5 Este 12 Este 0 -- -- 83
2017-11-03 23:00:00 16.5 8 Sudeste 18 Este 0 -- -- 82
2017-11-03 22:00:00 16.9 6 Este 17 Sudeste 0 -- -- 81
2017-11-03 21:00:00 17.5 10 Sudeste 18 Sudeste 0 -- -- 79
2017-11-03 20:00:00 18 9 Sudeste 16 Sudeste 0 -- -- 77
2017-11-03 19:00:00 18.7 8 Sudeste 17 Sudeste 0 -- -- 72
2017-11-03 18:00:00 20.1 8 Sudeste 15 Sudeste 0 -- -- 67
2017-11-03 17:00:00 22.2 8 Sudeste 14 Sudeste 0 -- -- 54
2017-11-03 16:00:00 23.9 6 Nordeste 16 Nordeste 0 -- -- 48
2017-11-03 15:00:00 23.3 5 Nordeste 17 Nordeste 0 -- -- 54
2017-11-03 14:00:00 21.8 4 Este 11 Sur 0 -- -- 58
2017-11-03 13:00:00 20.6 8 Este 16 Sur 0 -- -- 62
2017-11-03 12:00:00 19.8 3 Nordeste 12 Este 0 -- -- 64
2017-11-03 11:00:00 16.9 9 Nordeste 18 Nordeste 0 -- -- 72
2017-11-03 10:00:00 12.1 2 Norte 7 Oeste 0 -- -- 93
2017-11-03 09:00:00 9.5 4 Oeste 7 Sudoeste 0 -- -- 96
2017-11-03 08:00:00 9.6 0 Calma 5 Oeste 0 -- -- 96
2017-11-03 07:00:00 9.8 5 Sudoeste 7 Sudoeste 0 -- -- 94
2017-11-03 06:00:00 10.2 0 Calma 5 Noroeste 0 -- -- 95
2017-11-03 05:00:00 10.4 4 Oeste 5 Oeste 0 -- -- 93
2017-11-03 04:00:00 10.9 0 Calma 3 Sudoeste 0 -- -- 92
2017-11-03 03:00:00 11.4 3 Noroeste 6 Noroeste 0 -- -- 91
2017-11-03 02:00:00 12 4 Noroeste 9 Oeste 0 -- -- 89
2017-11-03 01:00:00 14.2 6 Nordeste 16 Nordeste 0 -- -- 85
2017-11-03 00:00:00 14.9 5 Este 14 Este 0 -- -- 79
2017-11-02 23:00:00 15.6 4 Nordeste 10 Este 0 -- -- 79
2017-11-02 22:00:00 16.1 5 Este 10 Este 0 -- -- 79
2017-11-02 21:00:00 16.7 5 Sudeste 13 Sudeste 0 -- -- 76
2017-11-02 20:00:00 17.5 7 Este 15 Sudeste 0 -- -- 73
2017-11-02 19:00:00 18.5 6 Sudeste 13 Sudeste 0 -- -- 71
2017-11-02 18:00:00 19.2 9 Este 15 Nordeste 0 -- -- 68
2017-11-02 17:00:00 20.6 9 Nordeste 14 Nordeste 0 -- -- 64
2017-11-02 16:00:00 21.6 6 Este 14 Nordeste 0 -- -- 61
2017-11-02 15:00:00 20.9 6 Nordeste 11 Nordeste 0 -- -- 64
2017-11-02 14:00:00 19.5 4 Este 9 Nordeste 0 -- -- 66
2017-11-02 13:00:00 17 4 Noroeste 7 Oeste 0 -- -- 74
2017-11-02 12:00:00 15.6 4 Oeste 6 Este 0 -- -- 77
2017-11-02 11:00:00 13.5 4 Oeste 5 Oeste 0 -- -- 85
2017-11-02 10:00:00 11.7 0 Calma 7 Noroeste 0 -- -- 91
2017-11-02 09:00:00 10.7 2 Norte 4 Norte 0 -- -- 94
2017-11-02 08:00:00 9.4 0 Calma 3 Nordeste 0 -- -- 94
2017-11-02 07:00:00 9.4 2 Noroeste 4 Oeste 0 -- -- 93
2017-11-02 06:00:00 10 0 Calma 5 Noroeste 0 -- -- 93
2017-11-02 05:00:00 10 2 Noroeste 6 Noroeste 0 -- -- 93
2017-11-02 04:00:00 10.5 4 Noroeste 10 Este 0 -- -- 92
2017-11-02 03:00:00 11.3 3 Noroeste 8 Oeste 0 -- -- 92
2017-11-02 02:00:00 11.7 3 Norte 9 Sudoeste 0 -- -- 91
2017-11-02 01:00:00 12.4 3 Sudoeste 16 Nordeste 0 -- -- 89
2017-11-02 00:00:00 14.1 15 Nordeste 23 Nordeste 0 -- -- 85
2017-11-01 23:00:00 14.9 13 Este 20 Este 0 -- -- 81
2017-11-01 22:00:00 16 8 Sudeste 15 Sudeste 0 -- -- 82
2017-11-01 21:00:00 16.1 7 Sudeste 17 Sudeste 0 -- -- 80
2017-11-01 20:00:00 16.6 6 Sudeste 19 Sudeste 0 -- -- 78
2017-11-01 19:00:00 17.7 10 Sudeste 24 Sudeste 0 -- -- 73
2017-11-01 18:00:00 18.9 13 Sudeste 28 Sudeste 0 -- -- 67
2017-11-01 17:00:00 21.1 10 Sudeste 17 Sudeste 0 -- -- 56
2017-11-01 16:00:00 22.2 10 Nordeste 17 Nordeste 0 -- -- 53
2017-11-01 15:00:00 21.5 6 Sudeste 14 Este 0 -- -- 54
2017-11-01 14:00:00 20.9 4 Este 13 Este 0 -- -- 57
2017-11-01 13:00:00 20.4 8 Nordeste 14 Nordeste 0 -- -- 56
2017-11-01 12:00:00 18.1 7 Nordeste 15 Nordeste 0 -- -- 60
2017-11-01 11:00:00 14.9 10 Nordeste 16 Nordeste 0 -- -- 68
2017-11-01 10:00:00 12.8 5 Nordeste 15 Nordeste 0 -- -- 73
2017-11-01 09:00:00 10.6 2 Oeste 4 Oeste 0 -- -- 84
2017-11-01 08:00:00 9.7 3 Oeste 6 Noroeste 0 -- -- 86
2017-11-01 07:00:00 10 3 Noroeste 10 Nordeste 0 -- -- 85
2017-11-01 06:00:00 10 0 Calma 8 Nordeste 0 -- -- 85
2017-11-01 05:00:00 9.5 3 Este 9 Norte 0 -- -- 85
2017-11-01 04:00:00 9.4 5 Oeste 7 Sudoeste 0 -- -- 85
2017-11-01 03:00:00 9.1 3 Oeste 9 Noroeste 0 -- -- 87
2017-11-01 02:00:00 8.8 3 Noroeste 6 Oeste 0 -- -- 88
2017-11-01 01:00:00 9.2 2 Sudoeste 6 Oeste 0 -- -- 86
2017-11-01 00:00:00 10.3 3 Noroeste 6 Noroeste 0 -- -- 84
2017-10-31 23:00:00 11.4 3 Oeste 15 Este 0 -- -- 77
2017-10-31 22:00:00 13.9 6 Este 13 Sudeste 0 -- -- 79
2017-10-31 21:00:00 14.5 8 Sudeste 13 Sudeste 0 -- -- 77
2017-10-31 20:00:00 15.2 7 Sudeste 14 Sudeste 0 -- -- 71
2017-10-31 19:00:00 15.4 4 Sudeste 10 Nordeste 0 -- -- 57
2017-10-31 18:00:00 16.7 9 Nordeste 11 Nordeste 0 -- -- 53
2017-10-31 17:00:00 19.2 6 Nordeste 12 Nordeste 0 -- -- 45
2017-10-31 16:00:00 19.1 5 Este 12 Nordeste 0 -- -- 45
2017-10-31 15:00:00 18.6 3 Sudeste 12 Nordeste 0 -- -- 46
2017-10-31 14:00:00 18 3 Oeste 13 Norte 0 -- -- 47
2017-10-31 13:00:00 16.2 4 Noroeste 10 Oeste 0 -- -- 51
2017-10-31 12:00:00 14.8 3 Este 11 Sudeste 0 -- -- 56
2017-10-31 11:00:00 13.1 6 Sur 13 Sur 0 -- -- 60
2017-10-31 10:00:00 11.2 4 Sur 11 Sur 0 -- -- 66
2017-10-31 09:00:00 9.3 2 Sur 5 Sudoeste 0 -- -- 72
2017-10-31 08:00:00 7.2 0 Calma 5 Oeste 0 -- -- 79
2017-10-31 07:00:00 7.5 0 Calma 6 Sudoeste 0 -- -- 77
2017-10-31 06:00:00 8.3 0 Calma 12 Sudoeste 0 -- -- 75
2017-10-31 05:00:00 9 7 Sudoeste 14 Sudoeste 0 -- -- 73
2017-10-31 04:00:00 9.5 5 Oeste 13 Sudoeste 0 -- -- 72
2017-10-31 03:00:00 10.1 3 Sudoeste 14 Sudoeste 0 -- -- 72
2017-10-31 02:00:00 10.7 7 Sur 14 Sudoeste 0 -- -- 70
2017-10-31 01:00:00 11.4 6 Sudoeste 14 Sudoeste 0 -- -- 70
2017-10-31 00:00:00 12.3 6 Sudoeste 14 Sur 0 -- -- 68
2017-10-30 23:00:00 12.9 4 Sudoeste 17 Sudoeste 0 -- -- 67
2017-10-30 22:00:00 13.7 2 Sudoeste 16 Sudoeste 0 -- -- 71
2017-10-30 21:00:00 15.3 5 Sudoeste 20 Sudoeste 0 -- -- 59
2017-10-30 20:00:00 17.3 8 Sur 21 Este 0 -- -- 52
2017-10-30 19:00:00 18.9 4 Sudeste 14 Sudoeste 0 -- -- 49
2017-10-30 18:00:00 20 7 Sur 18 Este 0 -- -- 48
2017-10-30 17:00:00 21.5 10 Este 15 Este 0 -- -- 47
2017-10-30 16:00:00 22.6 4 Sudeste 13 Sudoeste 0 -- -- 43
2017-10-30 15:00:00 22.2 6 Oeste 18 Oeste 0 -- -- 44
2017-10-30 14:00:00 20.8 5 Oeste 15 Oeste 0 -- -- 48
2017-10-30 13:00:00 19.5 8 Oeste 21 Sudoeste 0 -- -- 52
2017-10-30 12:00:00 18.2 7 Oeste 16 Oeste 0 -- -- 58
2017-10-30 11:00:00 16.3 5 Oeste 11 Sudoeste 0 -- -- 66
2017-10-30 10:00:00 12.9 3 Oeste 8 Sudoeste 0 -- -- 76
2017-10-30 09:00:00 12 4 Sudoeste 8 Sudoeste 0 -- -- 81
2017-10-30 08:00:00 10 3 Sudoeste 9 Sudoeste 0 -- -- 88
2017-10-30 07:00:00 10.2 3 Oeste 10 Oeste 0 -- -- 86
2017-10-30 06:00:00 11.2 2 Sudoeste 17 Sudoeste 0 -- -- 84
2017-10-30 05:00:00 11.4 9 Oeste 19 Oeste 0 -- -- 84
2017-10-30 04:00:00 11.7 4 Sudoeste 15 Sudoeste 0 -- -- 82
2017-10-30 03:00:00 12.3 5 Sudoeste 17 Sudoeste 0 -- -- 79
2017-10-30 02:00:00 12.5 5 Sudoeste 15 Sur 0 -- -- 77
2017-10-30 01:00:00 12.8 4 Sudoeste 18 Sudoeste 0 -- -- 75
2017-10-30 00:00:00 13.1 11 Sudoeste 22 Sudoeste 0 -- -- 72
2017-10-29 23:00:00 13.3 9 Sudoeste 17 Sudoeste 0 -- -- 69
2017-10-29 22:00:00 13.6 9 Sur 20 Sudoeste 0 -- -- 66
2017-10-29 21:00:00 14.6 10 Sudoeste 23 Sudoeste 0 -- -- 62
2017-10-29 20:00:00 16.3 9 Oeste 19 Noroeste 0 -- -- 55
2017-10-29 19:00:00 17.6 6 Sudoeste 14 Sudoeste 0 -- -- 50
2017-10-29 18:00:00 19.4 2 Nordeste 8 Nordeste 0 -- -- 45
2017-10-29 17:00:00 21.7 0 Calma 12 Noroeste 0 -- -- 41
2017-10-29 16:00:00 20.3 7 Noroeste 15 Noroeste 0 -- -- 44
2017-10-29 15:00:00 19.5 10 Noroeste 18 Noroeste 0 -- -- 45
2017-10-29 14:00:00 19.8 10 Oeste 27 Oeste 0 -- -- 42
2017-10-29 13:00:00 17.3 9 Noroeste 21 Oeste 0 -- -- 50
2017-10-29 12:00:00 15.4 5 Noroeste 14 Noroeste 0 -- -- 58
2017-10-29 11:00:00 13.8 6 Oeste 13 Oeste 0 -- -- 62
2017-10-29 10:00:00 12.4 3 Sur 8 Sudoeste 0 -- -- 67
2017-10-29 09:00:00 9.3 0 Calma 4 Noroeste 0 -- -- 80
2017-10-29 08:00:00 8.4 0 Calma 4 Sur 0 -- -- 81
2017-10-29 07:00:00 9.4 4 Sur 8 Oeste 0 -- -- 78
2017-10-29 06:00:00 9.5 4 Oeste 11 Sudoeste 0 -- -- 77
2017-10-29 05:00:00 10.3 7 Sudoeste 15 Sudoeste 0 -- -- 74
2017-10-29 04:00:00 11 7 Sudoeste 16 Sudoeste 0 -- -- 72
2017-10-29 03:00:00 11.6 8 Sudoeste 17 Sudoeste 0 -- -- 71
2017-10-29 02:00:00 12.1 8 Sudoeste 20 Sudoeste 0 -- -- 71
2017-10-29 01:00:00 13.2 9 Sudoeste 18 Sur 0 -- -- 69
2017-10-29 00:00:00 14.2 9 Sudoeste 18 Sudoeste 0 -- -- 66
2017-10-28 23:00:00 15.1 9 Sudoeste 19 Sudoeste 0 -- -- 64
2017-10-28 22:00:00 16.1 8 Sudoeste 26 Oeste 0 -- -- 62
2017-10-28 21:00:00 17.5 15 Sudoeste 28 Sudoeste 0 -- -- 58
2017-10-28 20:00:00 18.9 9 Sudoeste 25 Oeste 0 -- -- 55
2017-10-28 19:00:00 21.2 5 Oeste 9 Noroeste 0 -- -- 50
2017-10-28 18:00:00 23.8 4 Oeste 21 Sudoeste 0 -- -- 42
2017-10-28 17:00:00 24.1 9 Sudoeste 23 Sudoeste 0 -- -- 40
2017-10-28 16:00:00 23.8 11 Oeste 21 Sudoeste 0 -- -- 41
2017-10-28 15:00:00 22.5 10 Sudoeste 20 Sudoeste 0 -- -- 45
2017-10-28 14:00:00 21.4 9 Oeste 17 Oeste 0 -- -- 49
2017-10-28 13:00:00 19.6 9 Oeste 19 Oeste 0 -- -- 56
2017-10-28 12:00:00 18.5 7 Oeste 13 Sudoeste 0 -- -- 60
2017-10-28 11:00:00 16 5 Oeste 10 Sudoeste 0 -- -- 70
2017-10-28 10:00:00 13.7 2 Sur 8 Sudoeste 0 -- -- 79
2017-10-28 09:00:00 12.4 5 Sur 8 Sur 0 -- -- 83
2017-10-28 08:00:00 11.7 0 Calma 12 Sur 0 -- -- 84
2017-10-28 07:00:00 11.8 5 Sur 9 Sur 0 -- -- 85
2017-10-28 06:00:00 12.4 2 Oeste 8 Noroeste 0 -- -- 82
2017-10-28 05:00:00 12.9 3 Norte 8 Oeste 0 -- -- 80
2017-10-28 04:00:00 13.7 4 Oeste 17 Sudoeste 0 -- -- 76
2017-10-28 03:00:00 14.8 9 Sudoeste 18 Sudoeste 0 -- -- 73
2017-10-28 02:00:00 15.1 10 Oeste 23 Sudoeste 0 -- -- 72
2017-10-28 01:00:00 15.7 8 Sudoeste 19 Sudoeste 0 -- -- 69
2017-10-28 00:00:00 16 6 Sudoeste 16 Sudoeste 0 -- -- 69
2017-10-27 23:00:00 17 8 Sudoeste 18 Sudoeste 0 -- -- 65
2017-10-27 22:00:00 18 8 Sudoeste 22 Sudoeste 0 -- -- 63
2017-10-27 21:00:00 19.2 15 Sudoeste 28 Sudoeste 0 -- -- 58
2017-10-27 20:00:00 20.2 13 Sudoeste 21 Sudoeste 0 -- -- 55
2017-10-27 19:00:00 22.4 9 Sudoeste 28 Oeste 0 -- -- 50
2017-10-27 18:00:00 24.7 20 Oeste 32 Oeste 0 -- -- 46
2017-10-27 17:00:00 25.9 18 Oeste 32 Sudoeste 0 -- -- 44
2017-10-27 16:00:00 26.1 16 Oeste 35 Oeste 0 -- -- 43
2017-10-27 15:00:00 24.7 8 Noroeste 18 Noroeste 0 -- -- 45
2017-10-27 14:00:00 23.1 8 Noroeste 17 Oeste 0 -- -- 48
2017-10-27 13:00:00 21.5 5 Oeste 12 Sudoeste 0 -- -- 51
2017-10-27 12:00:00 19 3 Sudoeste 6 Oeste 0 -- -- 59
2017-10-27 11:00:00 15.5 3 Oeste 6 Oeste 0 -- -- 71
2017-10-27 10:00:00 12.3 0 Calma 6 Sudoeste 0 -- -- 88
2017-10-27 09:00:00 11.4 5 Sudoeste 9 Sudoeste 0 -- -- 88
2017-10-27 08:00:00 9.9 0 Calma 3 Sur 0 -- -- 94
2017-10-27 07:00:00 10.4 0 Calma 3 Sudoeste 0 -- -- 94
2017-10-27 06:00:00 10.7 2 Noroeste 4 Sudoeste 0 -- -- 93
2017-10-27 05:00:00 11.3 2 Sudoeste 4 Sur 0 -- -- 92
2017-10-27 04:00:00 11.9 0 Calma 5 Noroeste 0 -- -- 92
2017-10-27 03:00:00 12.4 2 Noroeste 3 Noroeste 0 -- -- 90
2017-10-27 02:00:00 13.6 0 Calma 4 Noroeste 0 -- -- 88
2017-10-27 01:00:00 14.1 3 Noroeste 5 Noroeste 0 -- -- 87
2017-10-27 00:00:00 15.8 0 Calma 8 Sur 0 -- -- 81
2017-10-26 23:00:00 18.6 4 Sudeste 8 Sudeste 0 -- -- 70
2017-10-26 22:00:00 18.9 2 Sur 8 Sur 0 -- -- 70
2017-10-26 21:00:00 20.1 2 Sudeste 10 Nordeste 0 -- -- 65
2017-10-26 20:00:00 21.7 0 Calma 8 Sudeste 0 -- -- 61
2017-10-26 19:00:00 23.8 5 Sudeste 11 Sudeste 0 -- -- 56
2017-10-26 18:00:00 25.9 2 Sur 11 Sur 0 -- -- 50
2017-10-26 17:00:00 26.3 2 Este 8 Oeste 0 -- -- 49
2017-10-26 16:00:00 24.6 0 Calma 9 Sudoeste 0 -- -- 54
2017-10-26 15:00:00 23.4 4 Oeste 8 Oeste 0 -- -- 60
2017-10-26 14:00:00 20.8 5 Sur 9 Sudoeste 0 -- -- 67
2017-10-26 13:00:00 17.2 2 Sur 10 Sudoeste 0 -- -- 80
2017-10-26 12:00:00 14.2 4 Sur 6 Sur 0 -- -- 95
2017-10-26 11:00:00 12.5 0 Calma 3 Sudeste 0 -- -- 97
2017-10-26 10:00:00 11.3 0 Calma 5 Noroeste 0 -- -- 96
2017-10-26 09:00:00 10.4 0 Calma 4 Noroeste 0 -- -- 95
2017-10-26 08:00:00 9.9 2 Noroeste 3 Oeste 0 -- -- 93
2017-10-26 07:00:00 9.7 2 Oeste 4 Oeste 0 -- -- 92
2017-10-26 06:00:00 10.3 3 Noroeste 5 Noroeste 0 -- -- 92
2017-10-26 05:00:00 11.1 0 Calma 7 Noroeste 0 -- -- 91
2017-10-26 04:00:00 11.2 2 Oeste 9 Oeste 0 -- -- 90
2017-10-26 03:00:00 11.8 0 Calma 6 Noroeste 0 -- -- 89
2017-10-26 02:00:00 13 4 Noroeste 7 Oeste 0 -- -- 86
2017-10-26 01:00:00 13.9 3 Noroeste 7 Oeste 0 -- -- 83
2017-10-26 00:00:00 15 4 Noroeste 8 Noroeste 0 -- -- 76